Johann Essberger — CQKG — position and weather

sailwx.info

Track history (hours):
 
Tides and Currents Weather Stations Pressure Air Temp Water Temp Dewpoint Dewpoint Depression Visibility Wind Speed Wind Dir Waves Ship Positions

Johann Essberger

Last reported at 2017-Dec-11 16:32 UTC. Time now 2017-Dec-12 14:03 UTC.
Position N 55°30' E 014°44'.

Length 100 m; draft 7.2 m.

Type: Ship (hazmat cat B). MMSI: 255804460.

Date/timePositionNaut miles runAvg speedWind from/ knotsBaromVisibWave heightAir tempDewpointWater temp
2017-Dec-11 16:32N 55°30' E 014°44'012.9
2017-Dec-11 16:30N 55°30' E 014°45'1613.0
2017-Dec-11 15:17N 55°38' E 015°09'412.9
2017-Dec-11 15:00N 55°40' E 015°15'612.7
2017-Dec-11 14:30N 55°43' E 015°25'612.8
2017-Dec-11 14:00N 55°46' E 015°35'612.9
2017-Dec-11 13:30N 55°49' E 015°44'713.1
2017-Dec-11 13:00N 55°52' E 015°55'612.9
2017-Dec-11 12:30N 55°55' E 016°05'612.7
2017-Dec-11 12:00N 55°59' E 016°15'612.9
2017-Dec-11 11:30N 56°02' E 016°25'31611.3
2017-Dec-10 07:36N 59°40' E 023°33'211.5
2017-Dec-10 07:27N 59°41' E 023°36'511.7
2017-Dec-10 07:00N 59°42' E 023°46'611.7
2017-Dec-10 06:29N 59°44' E 023°58'1112.7
2017-Dec-10 05:38N 59°47' E 024°18'211.6
2017-Dec-10 05:30N 59°48' E 024°21'611.7
2017-Dec-10 05:00N 59°49' E 024°32'611.9
2017-Dec-10 04:30N 59°50' E 024°44'912.2
2017-Dec-10 03:48N 59°52' E 025°01'311.8
2017-Dec-10 03:30N 59°52' E 025°08'611.9
2017-Dec-10 03:00N 59°55' E 025°18'612.1
2017-Dec-10 02:30N 59°58' E 025°29'611.0
2017-Dec-10 02:00N 60°02' E 025°34'611.3
2017-Dec-10 01:28N 60°09' E 025°35'7 0.4
2017-Dec-09 05:45N 60°16' E 025°33'0 0.1
2017-Dec-09 05:26N 60°16' E 025°33'0 0.0
2017-Dec-09 04:50N 60°16' E 025°33'0 0.0
2017-Dec-09 04:26N 60°16' E 025°33'0 0.0
2017-Dec-09 03:38N 60°16' E 025°33'0 0.1
2017-Dec-09 03:29N 60°16' E 025°33'0 0.0
2017-Dec-09 02:52N 60°16' E 025°33'0 0.0
2017-Dec-09 02:22N 60°16' E 025°33'0 0.0
2017-Dec-09 01:52N 60°16' E 025°33'0 0.0
2017-Dec-09 01:29N 60°16' E 025°33'0 0.0
2017-Dec-09 00:56N 60°16' E 025°33'0 0.0
2017-Dec-09 00:29N 60°16' E 025°33'0 0.0
2017-Dec-08 23:21N 60°16' E 025°33'0 0.0
2017-Dec-08 23:00N 60°16' E 025°33'0 0.0
2017-Dec-08 21:23N 60°16' E 025°33'0 0.0
2017-Dec-08 18:46N 60°16' E 025°33'0 0.1
2017-Dec-08 18:28N 60°16' E 025°33'0 0.0
2017-Dec-08 17:33N 60°16' E 025°33'0 0.0
2017-Dec-08 17:18N 60°16' E 025°33'0 0.0
2017-Dec-08 16:53N 60°16' E 025°33'0 0.0
2017-Dec-08 16:23N 60°16' E 025°33'0 0.1
2017-Dec-08 15:52N 60°16' E 025°33'0 0.1
2017-Dec-08 15:28N 60°16' E 025°33'0 0.0
2017-Dec-08 14:55N 60°16' E 025°33'0 0.0
2017-Dec-08 14:15N 60°16' E 025°33'9 0.7
2017-Dec-08 00:23N 60°07' E 025°34'511.6
2017-Dec-07 23:59N 60°02' E 025°36'1910.3
2017-Dec-07 22:10N 60°07' E 026°12'210.6
2017-Dec-07 22:00N 60°08' E 026°15'612.0
2017-Dec-07 21:30N 60°12' E 026°23'611.4
2017-Dec-07 21:00N 60°17' E 026°30'713.0
2017-Dec-07 20:30N 60°21' E 026°39'815.2
2017-Dec-07 20:00N 60°22' E 026°55'713.0
2017-Dec-07 19:30N 60°23' E 027°07'510.8
2017-Dec-07 19:01N 60°29' E 027°08'3 0.2
2017-Dec-07 07:47N 60°31' E 027°10'0 0.6
2017-Dec-07 07:30N 60°31' E 027°10'4 8.9
2017-Dec-07 07:01N 60°27' E 027°08'612.6
2017-Dec-07 06:30N 60°21' E 027°02'714.2
2017-Dec-07 06:01N 60°22' E 026°48'713.1
2017-Dec-07 05:31N 60°19' E 026°36'714.1
2017-Dec-07 05:01N 60°15' E 026°26'612.5
2017-Dec-07 04:31N 60°09' E 026°20'3611.0
2017-Dec-07 01:12N 59°49' E 025°19'211.6
2017-Dec-07 01:00N 59°49' E 025°14'611.7
2017-Dec-07 00:29N 59°48' E 025°02'511.6
2017-Dec-07 00:00N 59°46' E 024°52'611.9
2017-Dec-06 23:31N 59°45' E 024°40'611.9
2017-Dec-06 23:01N 59°44' E 024°29'611.9
2017-Dec-06 22:30N 59°42' E 024°17'1311.6
2017-Dec-06 21:23N 59°38' E 023°53'411.6
2017-Dec-06 21:00N 59°37' E 023°44'  
2017-Dec-04 09:57N 55°14' E 012°59'713.6
2017-Dec-04 09:27N 55°16' E 012°48'613.5
2017-Dec-04 09:00N 55°18' E 012°38'713.3
2017-Dec-04 08:27N 55°25' E 012°40'612.9
2017-Dec-04 08:00N 55°31' E 012°42'611.4
2017-Dec-04 07:30N 55°37' E 012°42'612.2
2017-Dec-04 07:00N 55°43' E 012°41'613.0
2017-Dec-04 06:30N 55°49' E 012°42'713.2
2017-Dec-04 06:00N 55°55' E 012°39'713.1
2017-Dec-04 05:30N 56°02' E 012°39'612.9
2017-Dec-04 05:00N 56°06' E 012°31'611.8
2017-Dec-04 04:30N 56°10' E 012°23'510.8
2017-Dec-04 04:00N 56°13' E 012°15'5711.0
2017-Dec-03 22:49N 57°07' E 011°38'411.0
2017-Dec-03 22:30N 57°10' E 011°36'511.0
2017-Dec-03 22:00N 57°15' E 011°32'511.0
2017-Dec-03 21:31N 57°20' E 011°29'510.9
2017-Dec-03 21:01N 57°25' E 011°25'510.6
2017-Dec-03 20:31N 57°31' E 011°24'611.3
2017-Dec-03 20:01N 57°36' E 011°24'611.6
2017-Dec-03 19:31N 57°42' E 011°24'611.3
2017-Dec-03 19:01N 57°48' E 011°24'612.6
2017-Dec-03 18:31N 57°53' E 011°30'612.6
2017-Dec-03 18:00N 57°56' E 011°41'713.7
2017-Dec-03 17:30N 58°02' E 011°47'3 6.9
2017-Dec-03 17:00N 58°05' E 011°49'0 0.0
2017-Dec-02 14:30N 58°05' E 011°49'0 0.0
2017-Dec-02 14:00N 58°05' E 011°49'2 3.5
2017-Dec-02 13:30N 58°04' E 011°47'510.3
2017-Dec-02 13:00N 57°59' E 011°45'713.7
2017-Dec-02 12:30N 57°55' E 011°34'613.0
2017-Dec-02 12:00N 57°51' E 011°25'611.6
2017-Dec-02 11:30N 57°50' E 011°14'611.2
2017-Dec-02 11:00N 57°49' E 011°03'611.5
2017-Dec-02 10:30N 57°49' E 010°53'612.3
2017-Dec-02 10:00N 57°48' E 010°41'611.9
2017-Dec-02 09:30N 57°47' E 010°30'  
Track history (hours):
 
Tides and Currents Weather Stations Pressure Air Temp Water Temp Dewpoint Dewpoint Depression Visibility Wind Speed Wind Dir Waves Ship Positions

Johann Essberger

Last reported at 2017-Dec-11 16:32 UTC. Time now 2017-Dec-12 14:03 UTC.
Position N 55°30' E 014°44'.

Length 100 m; draft 7.2 m.

Type: Ship (hazmat cat B). MMSI: 255804460.

Date/timePositionNaut miles runAvg speedWind from/ knotsBaromVisibWave heightAir tempDewpointWater temp
2017-Dec-11 16:32N 55°30' E 014°44'012.9
2017-Dec-11 16:30N 55°30' E 014°45'1613.0
2017-Dec-11 15:17N 55°38' E 015°09'412.9
2017-Dec-11 15:00N 55°40' E 015°15'612.7
2017-Dec-11 14:30N 55°43' E 015°25'612.8
2017-Dec-11 14:00N 55°46' E 015°35'612.9
2017-Dec-11 13:30N 55°49' E 015°44'713.1
2017-Dec-11 13:00N 55°52' E 015°55'612.9
2017-Dec-11 12:30N 55°55' E 016°05'612.7
2017-Dec-11 12:00N 55°59' E 016°15'612.9
2017-Dec-11 11:30N 56°02' E 016°25'31611.3
2017-Dec-10 07:36N 59°40' E 023°33'211.5
2017-Dec-10 07:27N 59°41' E 023°36'511.7
2017-Dec-10 07:00N 59°42' E 023°46'611.7
2017-Dec-10 06:29N 59°44' E 023°58'1112.7
2017-Dec-10 05:38N 59°47' E 024°18'211.6
2017-Dec-10 05:30N 59°48' E 024°21'611.7
2017-Dec-10 05:00N 59°49' E 024°32'611.9
2017-Dec-10 04:30N 59°50' E 024°44'912.2
2017-Dec-10 03:48N 59°52' E 025°01'311.8
2017-Dec-10 03:30N 59°52' E 025°08'611.9
2017-Dec-10 03:00N 59°55' E 025°18'612.1
2017-Dec-10 02:30N 59°58' E 025°29'611.0
2017-Dec-10 02:00N 60°02' E 025°34'611.3
2017-Dec-10 01:28N 60°09' E 025°35'7 0.4
2017-Dec-09 05:45N 60°16' E 025°33'0 0.1
2017-Dec-09 05:26N 60°16' E 025°33'0 0.0
2017-Dec-09 04:50N 60°16' E 025°33'0 0.0
2017-Dec-09 04:26N 60°16' E 025°33'0 0.0
2017-Dec-09 03:38N 60°16' E 025°33'0 0.1
2017-Dec-09 03:29N 60°16' E 025°33'0 0.0
2017-Dec-09 02:52N 60°16' E 025°33'0 0.0
2017-Dec-09 02:22N 60°16' E 025°33'0 0.0
2017-Dec-09 01:52N 60°16' E 025°33'0 0.0
2017-Dec-09 01:29N 60°16' E 025°33'0 0.0
2017-Dec-09 00:56N 60°16' E 025°33'0 0.0
2017-Dec-09 00:29N 60°16' E 025°33'0 0.0
2017-Dec-08 23:21N 60°16' E 025°33'0 0.0
2017-Dec-08 23:00N 60°16' E 025°33'0 0.0
2017-Dec-08 21:23N 60°16' E 025°33'0 0.0
2017-Dec-08 18:46N 60°16' E 025°33'0 0.1
2017-Dec-08 18:28N 60°16' E 025°33'0 0.0
2017-Dec-08 17:33N 60°16' E 025°33'0 0.0
2017-Dec-08 17:18N 60°16' E 025°33'0 0.0
2017-Dec-08 16:53N 60°16' E 025°33'0 0.0
2017-Dec-08 16:23N 60°16' E 025°33'0 0.1
2017-Dec-08 15:52N 60°16' E 025°33'0 0.1
2017-Dec-08 15:28N 60°16' E 025°33'0 0.0
2017-Dec-08 14:55N 60°16' E 025°33'0 0.0
2017-Dec-08 14:15N 60°16' E 025°33'9 0.7
2017-Dec-08 00:23N 60°07' E 025°34'511.6
2017-Dec-07 23:59N 60°02' E 025°36'1910.3
2017-Dec-07 22:10N 60°07' E 026°12'210.6
2017-Dec-07 22:00N 60°08' E 026°15'612.0
2017-Dec-07 21:30N 60°12' E 026°23'611.4
2017-Dec-07 21:00N 60°17' E 026°30'713.0
2017-Dec-07 20:30N 60°21' E 026°39'815.2
2017-Dec-07 20:00N 60°22' E 026°55'713.0
2017-Dec-07 19:30N 60°23' E 027°07'510.8
2017-Dec-07 19:01N 60°29' E 027°08'3 0.2
2017-Dec-07 07:47N 60°31' E 027°10'0 0.6
2017-Dec-07 07:30N 60°31' E 027°10'4 8.9
2017-Dec-07 07:01N 60°27' E 027°08'612.6
2017-Dec-07 06:30N 60°21' E 027°02'714.2
2017-Dec-07 06:01N 60°22' E 026°48'713.1
2017-Dec-07 05:31N 60°19' E 026°36'714.1
2017-Dec-07 05:01N 60°15' E 026°26'612.5
2017-Dec-07 04:31N 60°09' E 026°20'3611.0
2017-Dec-07 01:12N 59°49' E 025°19'211.6
2017-Dec-07 01:00N 59°49' E 025°14'611.7
2017-Dec-07 00:29N 59°48' E 025°02'511.6
2017-Dec-07 00:00N 59°46' E 024°52'611.9
2017-Dec-06 23:31N 59°45' E 024°40'611.9
2017-Dec-06 23:01N 59°44' E 024°29'611.9
2017-Dec-06 22:30N 59°42' E 024°17'1311.6
2017-Dec-06 21:23N 59°38' E 023°53'411.6
2017-Dec-06 21:00N 59°37' E 023°44'  
2017-Dec-04 09:57N 55°14' E 012°59'713.6
2017-Dec-04 09:27N 55°16' E 012°48'613.5
2017-Dec-04 09:00N 55°18' E 012°38'713.3
2017-Dec-04 08:27N 55°25' E 012°40'612.9
2017-Dec-04 08:00N 55°31' E 012°42'611.4
2017-Dec-04 07:30N 55°37' E 012°42'612.2
2017-Dec-04 07:00N 55°43' E 012°41'613.0
2017-Dec-04 06:30N 55°49' E 012°42'713.2
2017-Dec-04 06:00N 55°55' E 012°39'713.1
2017-Dec-04 05:30N 56°02' E 012°39'612.9
2017-Dec-04 05:00N 56°06' E 012°31'611.8
2017-Dec-04 04:30N 56°10' E 012°23'510.8
2017-Dec-04 04:00N 56°13' E 012°15'5711.0
2017-Dec-03 22:49N 57°07' E 011°38'411.0
2017-Dec-03 22:30N 57°10' E 011°36'511.0
2017-Dec-03 22:00N 57°15' E 011°32'511.0
2017-Dec-03 21:31N 57°20' E 011°29'510.9
2017-Dec-03 21:01N 57°25' E 011°25'510.6
2017-Dec-03 20:31N 57°31' E 011°24'611.3
2017-Dec-03 20:01N 57°36' E 011°24'611.6
2017-Dec-03 19:31N 57°42' E 011°24'611.3
2017-Dec-03 19:01N 57°48' E 011°24'612.6
2017-Dec-03 18:31N 57°53' E 011°30'612.6
2017-Dec-03 18:00N 57°56' E 011°41'713.7
2017-Dec-03 17:30N 58°02' E 011°47'3 6.9
2017-Dec-03 17:00N 58°05' E 011°49'0 0.0
2017-Dec-02 14:30N 58°05' E 011°49'0 0.0
2017-Dec-02 14:00N 58°05' E 011°49'2 3.5
2017-Dec-02 13:30N 58°04' E 011°47'510.3
2017-Dec-02 13:00N 57°59' E 011°45'713.7
2017-Dec-02 12:30N 57°55' E 011°34'613.0
2017-Dec-02 12:00N 57°51' E 011°25'611.6
2017-Dec-02 11:30N 57°50' E 011°14'611.2
2017-Dec-02 11:00N 57°49' E 011°03'611.5
2017-Dec-02 10:30N 57°49' E 010°53'612.3
2017-Dec-02 10:00N 57°48' E 010°41'611.9
2017-Dec-02 09:30N 57°47' E 010°30'  

Dump ship's entire track history